Time;durP1;ratioP1;P1;durP2;ratioP2;P2;SDS_P1;SDS_P2;PMS_P1;PMS_P2;Temp;Humidity;BMP_temperature;BMP_pressure;BME280_temperature;BME280_humidity;BME280_pressure;Samples;Min_cycle;Max_cycle;Signal;HPM_P1;HPM_P2
2021/11/13 00:00:18;;;;;;;12.25;9.10;;;;;;;10.15;60.44;99280.88;6068793;23;20027;-89
2021/11/13 00:02:45;;;;;;;11.05;8.85;;;;;;;10.18;60.25;99280.69;6069030;23;20019;-89
2021/11/13 00:05:12;;;;;;;13.88;9.52;;;;;;;10.20;60.42;99277.97;6043626;23;20328;-85
2021/11/13 00:07:40;;;;;;;14.05;8.77;;;;;;;10.20;60.67;99281.44;6069136;23;20023;-91
2021/11/13 00:13:46;;;;;;;13.00;9.25;;;;;;;10.25;60.39;99281.97;6069322;23;20422;-88
2021/11/13 00:16:13;;;;;;;19.52;10.10;;;;;;;10.27;60.54;99272.22;6068817;23;20031;-91
2021/11/13 00:18:40;;;;;;;13.15;9.35;;;;;;;10.29;60.78;99274.75;6068490;23;20022;-91
2021/11/13 00:21:06;;;;;;;13.95;9.23;;;;;;;10.32;60.81;99273.72;6043387;23;20023;-89
2021/11/13 00:23:38;;;;;;;14.68;10.27;;;;;;;10.33;61.28;99275.38;6069076;23;20030;-88
2021/11/13 00:26:09;;;;;;;12.57;9.48;;;;;;;10.35;61.06;99273.53;6068954;23;20030;-90
2021/11/13 00:28:38;;;;;;;15.55;9.68;;;;;;;10.38;61.12;99268.03;6069231;23;20026;-87
2021/11/13 00:31:04;;;;;;;15.43;10.35;;;;;;;10.39;61.11;99275.00;6069103;23;20036;-85
2021/11/13 00:33:31;;;;;;;12.60;9.23;;;;;;;10.40;61.01;99271.44;6069685;23;20023;-89
2021/11/13 00:35:58;;;;;;;15.25;9.93;;;;;;;10.41;61.15;99273.97;6067965;23;20019;-90
2021/11/13 00:38:24;;;;;;;16.38;9.95;;;;;;;10.41;61.57;99266.09;6044806;23;20018;-84
2021/11/13 00:40:51;;;;;;;12.23;9.25;;;;;;;10.43;61.35;99260.69;6043390;23;20019;-89
2021/11/13 00:43:21;;;;;;;15.48;10.40;;;;;;;10.45;61.78;99263.25;6069075;23;20029;-90
2021/11/13 00:45:48;;;;;;;16.15;9.70;;;;;;;10.46;61.79;99262.34;6067604;23;20116;-87
2021/11/13 00:48:17;;;;;;;14.30;9.95;;;;;;;10.47;61.79;99262.22;6068188;23;20380;-90
2021/11/13 00:50:44;;;;;;;14.07;9.27;;;;;;;10.50;61.64;99258.56;6068225;23;20030;-90
2021/11/13 00:53:11;;;;;;;14.23;9.82;;;;;;;10.51;61.65;99255.00;6044183;23;20044;-89
2021/11/13 00:55:38;;;;;;;14.35;10.07;;;;;;;10.52;61.97;99254.03;6044131;23;20023;-90
2021/11/13 00:58:05;;;;;;;14.32;10.48;;;;;;;10.53;61.74;99259.19;6068698;23;20030;-89
2021/11/13 01:00:34;;;;;;;15.10;9.88;;;;;;;10.54;61.91;99247.72;6068961;23;20027;-85
2021/11/13 01:03:01;;;;;;;14.68;9.45;;;;;;;10.54;61.83;99247.72;6068283;23;20030;-89
2021/11/13 01:05:29;;;;;;;13.07;9.38;;;;;;;10.57;62.00;99251.94;6067804;23;20411;-89
2021/11/13 01:07:55;;;;;;;15.43;10.55;;;;;;;10.57;62.20;99246.69;6067790;23;20019;-89
2021/11/13 01:10:22;;;;;;;18.73;10.98;;;;;;;10.59;62.27;99241.31;6042031;23;20019;-89
2021/11/13 01:12:49;;;;;;;14.80;10.57;;;;;;;10.60;62.31;99240.38;6042690;23;20086;-84
2021/11/13 01:15:18;;;;;;;15.55;11.02;;;;;;;10.61;62.38;99239.44;6066513;23;20395;-87
2021/11/13 01:17:45;;;;;;;19.40;10.68;;;;;;;10.62;62.33;99238.50;6068304;23;20019;-83
2021/11/13 01:20:17;;;;;;;14.73;10.38;;;;;;;10.60;62.87;99235.97;6066833;23;20022;-90
2021/11/13 01:22:45;;;;;;;15.20;10.38;;;;;;;10.62;62.23;99239.31;6043277;23;20023;-89
2021/11/13 01:25:13;;;;;;;14.65;9.75;;;;;;;10.61;62.45;99237.63;6068443;23;20054;-85
2021/11/13 01:27:40;;;;;;;15.48;10.27;;;;;;;10.61;62.30;99221.84;6043326;23;20042;-87
2021/11/13 01:30:08;;;;;;;16.00;11.13;;;;;;;10.60;62.40;99219.31;6068511;23;20026;-87
2021/11/13 01:32:36;;;;;;;13.52;10.20;;;;;;;10.60;62.38;99225.44;6067574;23;20347;-86
2021/11/13 01:35:08;;;;;;;15.18;10.48;;;;;;;10.59;62.66;99213.22;6041975;23;20037;-86
2021/11/13 01:37:58;;;;;;;14.85;9.88;;;;;;;10.59;62.71;99215.00;6043352;23;20019;-89
2021/11/13 01:40:27;;;;;;;14.65;9.95;;;;;;;10.62;62.35;99214.81;6042948;23;20027;-89
2021/11/13 01:42:56;;;;;;;14.77;9.73;;;;;;;10.62;62.19;99215.63;6068027;23;20027;-82
2021/11/13 01:45:26;;;;;;;14.77;10.20;;;;;;;10.64;62.24;99202.38;6042516;23;20034;-88
2021/11/13 01:47:53;;;;;;;14.45;9.60;;;;;;;10.66;62.15;99200.50;6067803;23;20022;-84
2021/11/13 01:50:31;;;;;;;13.63;9.68;;;;;;;10.65;62.46;99198.81;6066626;23;20074;-87
2021/11/13 01:53:47;;;;;;;13.93;9.05;;;;;;;10.64;62.63;99190.06;6067082;23;20510;-89
2021/11/13 01:56:34;;;;;;;14.43;9.20;;;;;;;10.67;62.37;99189.03;6040431;23;20460;-89
2021/11/13 01:59:10;;;;;;;16.17;9.50;;;;;;;10.68;62.46;99182.81;6067534;23;20046;-86
2021/11/13 02:01:45;;;;;;;16.08;11.05;;;;;;;10.66;62.53;99169.75;6067688;23;20455;-88
2021/11/13 02:04:11;;;;;;;13.70;10.35;;;;;;;10.70;62.04;99173.03;6069327;23;20090;-84
2021/11/13 02:07:07;;;;;;;18.02;9.75;;;;;;;10.67;62.61;99186.38;6069213;23;20030;-88
2021/11/13 02:09:35;;;;;;;14.07;9.93;;;;;;;10.69;62.08;99180.06;6043829;23;20059;-82
2021/11/13 02:12:33;;;;;;;13.20;9.80;;;;;;;10.67;62.68;99173.22;6043723;23;20027;-90
2021/11/13 02:15:05;;;;;;;17.52;11.00;;;;;;;10.68;62.10;99157.34;6069855;23;20018;-89
2021/11/13 02:17:32;;;;;;;17.77;10.80;;;;;;;10.68;62.14;99156.47;6069257;23;20026;-84
2021/11/13 02:20:32;;;;;;;12.73;9.15;;;;;;;10.65;62.73;99164.59;6069257;23;20094;-84
2021/11/13 02:23:20;;;;;;;13.63;9.80;;;;;;;10.63;62.74;99164.69;6043767;23;20023;-82
2021/11/13 02:25:49;;;;;;;15.88;10.13;;;;;;;10.66;62.35;99153.94;6066324;23;20026;-82
2021/11/13 02:28:21;;;;;;;13.88;10.50;;;;;;;10.65;62.33;99164.59;6068411;23;20399;-86
2021/11/13 02:31:21;;;;;;;18.75;10.15;;;;;;;10.63;62.74;99161.22;6069358;23;20529;-89
2021/11/13 02:34:05;;;;;;;12.00;9.23;;;;;;;10.66;62.32;99158.38;6068326;23;20495;-88
2021/11/13 02:36:32;;;;;;;14.52;9.70;;;;;;;10.66;62.27;99161.03;6069337;23;20463;-86
2021/11/13 02:39:21;;;;;;;16.05;9.93;;;;;;;10.66;62.47;99156.56;6069101;23;20023;-89
2021/11/13 02:41:49;;;;;;;16.45;10.00;;;;;;;10.66;62.23;99164.47;6040862;23;20030;-89
2021/11/13 02:44:32;;;;;;;13.80;9.95;;;;;;;10.65;62.70;99167.25;6036435;23;20022;-87
2021/11/13 02:47:00;;;;;;;15.25;10.05;;;;;;;10.65;62.66;99167.25;6043839;23;20027;-88
2021/11/13 02:49:30;;;;;;;14.55;9.88;;;;;;;10.62;62.70;99170.06;6069180;23;20027;-89
2021/11/13 02:51:59;;;;;;;14.68;10.00;;;;;;;10.61;62.92;99168.38;6069030;23;20030;-87
2021/11/13 02:54:26;;;;;;;13.82;9.65;;;;;;;10.59;62.93;99165.00;6069219;23;20023;-86
2021/11/13 02:56:53;;;;;;;12.68;9.27;;;;;;;10.57;63.02;99169.53;6067755;23;20026;-87
2021/11/13 02:59:20;;;;;;;14.13;9.35;;;;;;;10.55;62.71;99165.19;6043969;23;20034;-89
2021/11/13 03:01:46;;;;;;;12.70;9.40;;;;;;;10.54;63.12;99168.78;6043724;23;20023;-85
2021/11/13 03:04:13;;;;;;;14.40;9.65;;;;;;;10.53;63.02;99166.25;6068719;23;20029;-84
2021/11/13 03:06:40;;;;;;;15.80;10.27;;;;;;;10.52;63.29;99159.31;6067727;23;20053;-87
2021/11/13 03:09:06;;;;;;;15.63;9.80;;;;;;;10.50;63.29;99163.84;6068217;23;20019;-82
2021/11/13 03:11:33;;;;;;;13.60;9.75;;;;;;;10.48;63.28;99165.72;6043589;23;20033;-85
2021/11/13 03:14:00;;;;;;;14.43;9.20;;;;;;;10.46;63.36;99164.97;6043215;23;20462;-84
2021/11/13 03:16:27;;;;;;;15.20;9.70;;;;;;;10.45;63.65;99165.91;6068973;23;20023;-87
2021/11/13 03:18:55;;;;;;;14.73;9.80;;;;;;;10.41;63.81;99158.19;6068168;23;20106;-85
2021/11/13 03:21:21;;;;;;;16.05;10.43;;;;;;;10.39;64.00;99164.50;6068323;23;20023;-86
2021/11/13 03:23:56;;;;;;;14.27;9.57;;;;;;;10.35;64.05;99163.03;6069144;23;20075;-85
2021/11/13 03:26:27;;;;;;;13.82;10.15;;;;;;;10.29;65.37;99175.63;6043329;23;20022;-86
2021/11/13 03:29:15;;;;;;;14.32;9.82;;;;;;;10.21;66.09;99172.63;6068403;23;20019;-87
2021/11/13 03:31:43;;;;;;;16.50;9.68;;;;;;;10.20;64.75;99163.06;6068720;23;20030;-88
2021/11/13 03:34:25;;;;;;;17.27;9.75;;;;;;;10.10;66.14;99154.94;6044562;23;20391;-88
2021/11/13 03:36:51;;;;;;;14.18;9.60;;;;;;;10.11;64.87;99163.66;6069805;23;20274;-87
2021/11/13 03:39:18;;;;;;;17.77;11.98;;;;;;;10.06;65.53;99155.25;6044880;23;20018;-87
2021/11/13 03:41:45;;;;;;;17.10;11.40;;;;;;;10.01;65.82;99151.13;6044824;23;20027;-84
2021/11/13 03:44:11;;;;;;;17.42;10.82;;;;;;;9.97;65.74;99152.25;6068963;23;20466;-84
2021/11/13 03:46:40;;;;;;;15.57;10.65;;;;;;;9.94;66.08;99151.63;6045750;23;20022;-84
2021/11/13 03:49:07;;;;;;;17.70;10.48;;;;;;;9.90;66.12;99159.69;6069839;23;20459;-87
2021/11/13 03:51:34;;;;;;;12.68;9.45;;;;;;;9.88;66.01;99160.75;6069200;23;20034;-86
2021/11/13 03:54:02;;;;;;;14.98;10.48;;;;;;;9.86;66.23;99154.72;6043251;23;20107;-86
2021/11/13 03:56:31;;;;;;;14.73;10.57;;;;;;;9.84;66.50;99162.72;6043890;23;20086;-84
2021/11/13 03:58:58;;;;;;;14.68;10.40;;;;;;;9.83;66.65;99157.56;6068666;23;20023;-83
2021/11/13 04:01:25;;;;;;;15.27;10.77;;;;;;;9.81;66.78;99160.28;6068530;23;20046;-84
2021/11/13 04:03:51;;;;;;;17.67;11.73;;;;;;;9.80;67.03;99163.00;6069016;23;20344;-84
2021/11/13 04:06:18;;;;;;;16.77;11.90;;;;;;;9.78;67.03;99160.47;6069069;23;20034;-83
2021/11/13 04:08:45;;;;;;;19.38;11.15;;;;;;;9.75;67.09;99166.78;6043210;23;20027;-82
2021/11/13 04:11:11;;;;;;;15.15;10.75;;;;;;;9.74;67.25;99161.59;6068715;23;20391;-82
2021/11/13 04:13:38;;;;;;;15.20;10.45;;;;;;;9.73;67.79;99168.66;6069280;23;20086;-83
2021/11/13 04:16:05;;;;;;;16.48;10.57;;;;;;;9.74;67.39;99164.25;6068951;23;20026;-83
2021/11/13 04:18:32;;;;;;;18.90;11.85;;;;;;;9.73;67.48;99158.16;6068602;23;20022;-85
2021/11/13 04:20:59;;;;;;;16.77;11.30;;;;;;;9.74;67.45;99162.47;6044736;23;20034;-82
2021/11/13 04:23:26;;;;;;;15.82;11.35;;;;;;;9.74;67.45;99165.09;6070382;23;20078;-82
2021/11/13 04:25:52;;;;;;;17.80;11.70;;;;;;;9.74;67.67;99165.09;6068976;23;20026;-83
2021/11/13 04:28:19;;;;;;;16.45;11.57;;;;;;;9.75;67.42;99161.53;6068065;23;20019;-82
2021/11/13 04:30:46;;;;;;;15.38;11.00;;;;;;;9.74;67.64;99165.09;6043708;23;20030;-84
2021/11/13 04:33:13;;;;;;;17.50;11.70;;;;;;;9.75;67.86;99164.16;6044536;23;20026;-84
2021/11/13 04:35:48;;;;;;;15.32;11.02;;;;;;;9.75;67.95;99177.28;6069111;23;20034;-83
2021/11/13 04:38:15;;;;;;;16.85;12.13;;;;;;;9.76;67.99;99172.88;6068841;23;20375;-84
2021/11/13 04:40:42;;;;;;;14.38;10.80;;;;;;;9.77;67.99;99174.56;6068965;23;20046;-84
2021/11/13 04:43:09;;;;;;;17.58;11.20;;;;;;;9.78;67.99;99177.09;6069604;23;20363;-84
2021/11/13 04:45:36;;;;;;;15.23;11.13;;;;;;;9.79;67.88;99180.56;6069423;23;20076;-86
2021/11/13 04:48:04;;;;;;;18.02;10.70;;;;;;;9.81;68.00;99175.22;6069014;23;20094;-83
2021/11/13 04:50:33;;;;;;;13.80;10.23;;;;;;;9.81;67.82;99180.47;6068855;23;20029;-83
2021/11/13 04:53:00;;;;;;;16.05;11.23;;;;;;;9.82;67.71;99183.00;6069064;23;20026;-84
2021/11/13 04:55:26;;;;;;;15.63;11.40;;;;;;;9.83;67.99;99175.97;6044599;23;20054;-84
2021/11/13 04:57:53;;;;;;;16.63;10.20;;;;;;;9.85;68.19;99181.97;6070656;23;20022;-84
2021/11/13 05:00:23;;;;;;;14.35;10.38;;;;;;;9.86;68.03;99181.00;6043160;23;20486;-83
2021/11/13 05:02:50;;;;;;;16.98;10.90;;;;;;;9.87;67.66;99180.91;6042780;23;20027;-83
2021/11/13 05:05:18;;;;;;;14.05;10.40;;;;;;;9.89;67.55;99184.31;6041611;23;20027;-84
2021/11/13 05:07:45;;;;;;;14.25;10.48;;;;;;;9.89;67.60;99178.19;6066719;23;20051;-82
2021/11/13 05:10:13;;;;;;;15.00;10.55;;;;;;;9.90;67.44;99179.88;6042424;23;20493;-84
2021/11/13 05:12:41;;;;;;;16.13;10.35;;;;;;;9.89;67.56;99179.06;6068442;23;20347;-82
2021/11/13 05:15:09;;;;;;;13.63;10.02;;;;;;;9.89;67.58;99188.72;6042199;23;20023;-82
2021/11/13 05:17:37;;;;;;;15.45;10.20;;;;;;;9.87;67.67;99175.66;6044634;23;20075;-82
2021/11/13 05:20:07;;;;;;;15.00;10.00;;;;;;;9.85;67.90;99185.44;6044577;23;20522;-83
2021/11/13 05:22:37;;;;;;;15.77;10.55;;;;;;;9.84;67.70;99180.28;6046072;23;20451;-84
2021/11/13 05:25:07;;;;;;;17.65;10.98;;;;;;;9.81;67.86;99193.59;6045698;23;20399;-84
2021/11/13 05:27:34;;;;;;;18.13;11.02;;;;;;;9.80;67.81;99189.28;6070262;23;20094;-83
2021/11/13 05:30:03;;;;;;;15.77;10.50;;;;;;;9.79;67.77;99193.69;6069799;23;20027;-85
2021/11/13 05:32:30;;;;;;;14.57;10.57;;;;;;;9.76;67.90;99189.47;6071891;23;20030;-84
2021/11/13 05:34:57;;;;;;;15.45;10.18;;;;;;;9.75;67.95;99185.16;6070732;23;20026;-84
2021/11/13 05:37:23;;;;;;;14.77;10.52;;;;;;;9.75;67.97;99190.44;6071367;23;20133;-83
2021/11/13 05:39:50;;;;;;;15.68;10.43;;;;;;;9.76;68.21;99189.47;6070008;23;20511;-83
2021/11/13 05:42:16;;;;;;;16.50;9.40;;;;;;;9.77;68.00;99179.81;6072714;23;20046;-84
2021/11/13 05:44:43;;;;;;;12.93;9.13;;;;;;;9.78;68.03;99187.63;6070753;23;20026;-84
2021/11/13 05:47:11;;;;;;;11.40;8.52;;;;;;;9.81;67.95;99183.09;6070524;23;20097;-83
2021/11/13 05:49:38;;;;;;;12.05;9.02;;;;;;;9.82;67.87;99187.41;6069148;23;20391;-83
2021/11/13 05:52:06;;;;;;;12.75;9.23;;;;;;;9.82;67.89;99180.38;6043384;23;20038;-85
2021/11/13 05:54:35;;;;;;;12.07;9.10;;;;;;;9.83;68.08;99189.13;6043749;23;20501;-83
2021/11/13 05:57:06;;;;;;;11.88;9.45;;;;;;;9.84;68.44;99194.28;6044166;23;20027;-82
2021/11/13 05:59:52;;;;;;;9.98;7.93;;;;;;;9.87;67.92;99186.19;6069412;23;20439;-83
2021/11/13 06:02:19;;;;;;;10.50;8.02;;;;;;;9.90;67.96;99187.75;6067579;23;20038;-82
2021/11/13 06:04:46;;;;;;;11.93;8.98;;;;;;;9.89;68.02;99188.72;6044420;23;20034;-82
2021/11/13 06:07:13;;;;;;;13.50;9.63;;;;;;;9.89;67.98;99186.94;6067738;23;20031;-83
2021/11/13 06:09:41;;;;;;;10.43;8.80;;;;;;;9.89;68.10;99199.22;6068988;23;20023;-83
2021/11/13 06:12:09;;;;;;;11.45;9.52;;;;;;;9.89;68.16;99194.81;6043657;23;20031;-83
2021/11/13 06:14:36;;;;;;;12.88;9.95;;;;;;;9.90;67.95;99190.38;6042311;23;20502;-84
2021/11/13 06:17:03;;;;;;;11.30;9.32;;;;;;;9.89;68.18;99197.44;6042010;23;20023;-84
2021/11/13 06:19:30;;;;;;;15.73;12.00;;;;;;;9.88;68.27;99202.81;6042020;23;20030;-85
2021/11/13 06:21:57;;;;;;;12.75;9.20;;;;;;;9.87;68.23;99201.94;6067259;23;20029;-83
2021/11/13 06:24:24;;;;;;;14.32;10.18;;;;;;;9.85;68.25;99206.47;6042912;23;20083;-83
2021/11/13 06:26:50;;;;;;;11.85;9.55;;;;;;;9.84;68.17;99207.41;6067720;23;20023;-83
2021/11/13 06:29:17;;;;;;;14.38;10.50;;;;;;;9.84;68.36;99203.94;6042357;23;20023;-83
2021/11/13 06:31:43;;;;;;;12.82;10.52;;;;;;;9.84;68.55;99206.56;6065297;23;20026;-83
2021/11/13 06:34:10;;;;;;;13.55;10.70;;;;;;;9.83;68.74;99203.06;6065326;23;20249;-83
2021/11/13 06:36:37;;;;;;;17.42;10.52;;;;;;;9.84;68.63;99217.06;6067275;23;20026;-85
2021/11/13 06:39:03;;;;;;;20.50;12.27;;;;;;;9.83;68.83;99210.13;6065300;23;20347;-82
2021/11/13 06:41:30;;;;;;;23.23;12.27;;;;;;;9.81;69.19;99212.84;6067343;23;20343;-84
2021/11/13 06:43:58;;;;;;;17.63;12.52;;;;;;;9.80;69.08;99232.22;6066619;23;20023;-83
2021/11/13 06:46:27;;;;;;;17.25;11.73;;;;;;;9.76;69.27;99230.72;6067431;23;20023;-83
2021/11/13 06:48:54;;;;;;;16.48;12.13;;;;;;;9.74;69.49;99227.31;6067766;23;20031;-83
2021/11/13 06:51:21;;;;;;;17.08;12.32;;;;;;;9.72;69.58;99235.28;6044073;23;20030;-82
2021/11/13 06:53:48;;;;;;;15.95;12.07;;;;;;;9.71;69.72;99232.75;6043675;23;20022;-83
2021/11/13 06:56:15;;;;;;;13.85;11.30;;;;;;;9.71;69.53;99238.00;6068804;23;20078;-83
2021/11/13 06:58:42;;;;;;;18.35;11.93;;;;;;;9.70;69.83;99236.31;6068539;23;20023;-83
2021/11/13 07:01:09;;;;;;;13.75;10.52;;;;;;;9.70;69.39;99234.56;6043887;23;20062;-85
2021/11/13 07:03:35;;;;;;;15.32;11.52;;;;;;;9.73;69.64;99244.88;6068210;23;20030;-84
2021/11/13 07:06:02;;;;;;;14.40;10.95;;;;;;;9.74;69.62;99241.31;6068429;23;20403;-84
2021/11/13 07:08:28;;;;;;;14.02;10.48;;;;;;;9.77;69.67;99248.16;6068013;23;20023;-83
2021/11/13 07:10:55;;;;;;;14.77;10.93;;;;;;;9.78;69.66;99250.69;6069644;23;20031;-83
2021/11/13 07:13:24;;;;;;;17.67;11.98;;;;;;;9.81;69.91;99254.06;6068621;23;20085;-83
2021/11/13 07:15:52;;;;;;;15.43;12.15;;;;;;;9.83;70.22;99258.28;6068457;23;20133;-85
2021/11/13 07:18:23;;;;;;;14.40;11.30;;;;;;;9.88;69.69;99250.13;6068598;23;20029;-83
2021/11/13 07:20:54;;;;;;;14.70;10.98;;;;;;;9.88;69.79;99253.56;6067984;23;20034;-82
2021/11/13 07:23:21;;;;;;;14.55;11.27;;;;;;;9.91;69.84;99263.91;6068666;23;20023;-83
2021/11/13 07:25:49;;;;;;;15.73;12.43;;;;;;;9.93;69.74;99258.56;6068704;23;20029;-83
2021/11/13 07:28:18;;;;;;;17.33;12.73;;;;;;;9.95;69.84;99261.97;6068255;23;20033;-83
2021/11/13 07:30:47;;;;;;;16.65;11.40;;;;;;;9.99;69.88;99270.47;6068622;23;20031;-83
2021/11/13 07:33:14;;;;;;;18.02;12.10;;;;;;;10.00;69.56;99275.66;6068547;23;20026;-82
2021/11/13 07:35:43;;;;;;;17.90;13.32;;;;;;;10.01;69.73;99274.69;6042927;23;20075;-83
2021/11/13 07:38:10;;;;;;;15.85;11.30;;;;;;;10.04;69.65;99286.81;6043692;23;20038;-82
2021/11/13 07:40:37;;;;;;;17.50;12.05;;;;;;;10.06;69.67;99286.72;6068495;23;20026;-84
2021/11/13 07:43:04;;;;;;;14.57;11.45;;;;;;;10.09;69.64;99290.00;6068391;23;20027;-83
2021/11/13 07:45:31;;;;;;;18.00;12.43;;;;;;;10.12;69.78;99289.81;6068082;23;20059;-84
2021/11/13 07:47:58;;;;;;;14.50;11.10;;;;;;;10.16;69.55;99290.44;6068762;23;20022;-83
2021/11/13 07:50:24;;;;;;;17.52;12.38;;;;;;;10.20;69.80;99285.88;6067977;23;20023;-83
2021/11/13 07:52:51;;;;;;;17.58;11.75;;;;;;;10.22;69.44;99292.72;6068515;23;20027;-83
2021/11/13 07:55:18;;;;;;;16.30;11.75;;;;;;;10.25;69.63;99294.31;6043420;23;20443;-83
2021/11/13 07:57:46;;;;;;;16.13;11.68;;;;;;;10.27;69.52;99292.41;6069041;23;20023;-85
2021/11/13 08:00:15;;;;;;;15.55;11.98;;;;;;;10.30;69.51;99292.22;6068074;23;20050;-83
2021/11/13 08:02:42;;;;;;;15.77;10.93;;;;;;;10.34;69.30;99300.75;6068862;23;20027;-83
2021/11/13 08:05:10;;;;;;;16.33;11.35;;;;;;;10.35;69.24;99294.56;6068251;23;20082;-83
2021/11/13 08:07:37;;;;;;;14.07;10.63;;;;;;;10.35;69.23;99299.84;6067934;23;20447;-83
2021/11/13 08:10:05;;;;;;;12.68;10.25;;;;;;;10.36;69.37;99298.88;6067404;23;20071;-83
2021/11/13 08:12:32;;;;;;;12.98;9.77;;;;;;;10.37;69.30;99300.56;6042628;23;20033;-83
2021/11/13 08:14:59;;;;;;;13.25;9.73;;;;;;;10.37;69.17;99297.94;6068312;23;20031;-84
2021/11/13 08:17:26;;;;;;;11.73;8.77;;;;;;;10.37;69.38;99293.53;6068925;23;20034;-84
2021/11/13 08:19:52;;;;;;;11.18;8.20;;;;;;;10.37;69.34;99292.66;6067901;23;20026;-83
2021/11/13 08:22:19;;;;;;;12.63;8.52;;;;;;;10.37;69.24;99301.41;6068120;23;20030;-83
2021/11/13 08:24:45;;;;;;;11.20;9.20;;;;;;;10.38;69.48;99294.34;6067735;23;20479;-85
2021/11/13 08:27:12;;;;;;;13.88;8.82;;;;;;;10.38;69.40;99295.22;6042420;23;20019;-83
2021/11/13 08:29:39;;;;;;;10.77;8.48;;;;;;;10.40;69.40;99303.00;6067591;23;20026;-83
2021/11/13 08:32:06;;;;;;;10.20;8.40;;;;;;;10.39;69.43;99304.78;6067736;23;20023;-84
2021/11/13 08:34:35;;;;;;;10.23;7.75;;;;;;;10.38;69.36;99305.72;6067950;23;20078;-83
2021/11/13 08:37:04;;;;;;;14.43;9.18;;;;;;;10.36;70.10;99304.16;6067786;23;20275;-86
2021/11/13 08:39:35;;;;;;;10.55;8.68;;;;;;;10.35;69.90;99305.09;6067839;23;20023;-83
2021/11/13 08:42:11;;;;;;;10.93;7.90;;;;;;;10.35;69.76;99307.72;6068054;23;20074;-82
2021/11/13 08:44:40;;;;;;;9.85;7.50;;;;;;;10.35;69.81;99310.34;6068201;23;20260;-83
2021/11/13 08:47:09;;;;;;;13.60;9.55;;;;;;;10.35;69.96;99305.91;6067961;23;20023;-83
2021/11/13 08:49:37;;;;;;;12.10;8.95;;;;;;;10.36;69.94;99306.78;6068001;23;20324;-82
2021/11/13 08:52:06;;;;;;;10.80;8.88;;;;;;;10.35;70.13;99311.19;6068051;23;20027;-83
2021/11/13 08:54:33;;;;;;;11.68;9.02;;;;;;;10.38;69.62;99312.78;6067280;23;20066;-82
2021/11/13 08:57:02;;;;;;;11.45;9.35;;;;;;;10.37;70.10;99313.72;6067681;23;20082;-83
2021/11/13 08:59:29;;;;;;;13.35;9.25;;;;;;;10.37;69.94;99304.06;6067345;23;20467;-83
2021/11/13 09:01:58;;;;;;;12.07;9.50;;;;;;;10.36;69.92;99307.59;6042775;23;20030;-83
2021/11/13 09:04:25;;;;;;;11.63;9.60;;;;;;;10.36;70.16;99304.97;6067922;23;20090;-84
2021/11/13 09:06:52;;;;;;;11.68;9.98;;;;;;;10.36;70.20;99312.88;6068461;23;20023;-82
2021/11/13 09:09:18;;;;;;;13.57;9.57;;;;;;;10.37;70.15;99313.72;6067161;23;20022;-83
2021/11/13 09:11:45;;;;;;;12.82;10.45;;;;;;;10.36;70.53;99312.03;6066901;23;20027;-84
2021/11/13 09:14:17;;;;;;;14.82;9.95;;;;;;;10.35;70.87;99320.88;6068052;23;20027;-83
2021/11/13 09:16:46;;;;;;;12.93;10.02;;;;;;;10.35;70.74;99311.19;6068221;23;20027;-87
2021/11/13 09:19:13;;;;;;;11.55;9.45;;;;;;;10.37;70.39;99313.72;6042716;23;20395;-84
2021/11/13 09:21:40;;;;;;;11.77;9.07;;;;;;;10.38;70.38;99313.63;6067926;23;20031;-83
2021/11/13 09:24:07;;;;;;;12.05;9.65;;;;;;;10.40;70.56;99321.44;6067683;23;20022;-82
2021/11/13 09:26:34;;;;;;;11.40;9.38;;;;;;;10.41;70.59;99321.34;6067010;23;20129;-84
2021/11/13 09:29:02;;;;;;;11.57;9.48;;;;;;;10.43;70.67;99324.69;6067460;23;20094;-83
2021/11/13 09:31:29;;;;;;;11.20;8.80;;;;;;;10.47;70.55;99325.38;6067197;23;20086;-83
2021/11/13 09:33:55;;;;;;;13.25;10.57;;;;;;;10.49;70.64;99326.13;6067135;23;20098;-83
2021/11/13 09:36:23;;;;;;;11.88;9.45;;;;;;;10.51;70.65;99326.88;6041895;23;20332;-85
2021/11/13 09:38:55;;;;;;;12.60;10.00;;;;;;;10.55;70.46;99332.78;6067288;23;20355;-82
2021/11/13 09:41:22;;;;;;;14.38;10.52;;;;;;;10.58;70.75;99342.28;6067555;23;20023;-83
2021/11/13 09:43:49;;;;;;;15.40;10.45;;;;;;;10.60;70.63;99340.38;6066817;23;20027;-83
2021/11/13 09:46:16;;;;;;;13.15;10.57;;;;;;;10.62;70.76;99339.34;6068217;23;20494;-83
2021/11/13 09:48:44;;;;;;;14.63;10.93;;;;;;;10.63;70.72;99346.31;6067939;23;20402;-83
2021/11/13 09:51:14;;;;;;;14.18;10.88;;;;;;;10.65;70.58;99351.47;6043276;23;20027;-83
2021/11/13 09:53:40;;;;;;;14.20;9.77;;;;;;;10.67;70.70;99349.59;6068685;23;20035;-84
2021/11/13 09:56:10;;;;;;;13.57;10.43;;;;;;;10.69;70.71;99345.06;6042709;23;20027;-84
2021/11/13 09:58:37;;;;;;;13.95;10.55;;;;;;;10.70;70.64;99352.03;6067549;23;20027;-84
2021/11/13 10:01:04;;;;;;;14.10;11.43;;;;;;;10.72;70.84;99349.31;6065309;23;20042;-81
2021/11/13 10:03:33;;;;;;;12.50;9.75;;;;;;;10.74;70.63;99347.41;6067995;23;20029;-82
2021/11/13 10:06:06;;;;;;;15.13;9.82;;;;;;;10.77;70.76;99355.09;6069768;23;20023;-83
2021/11/13 10:08:33;;;;;;;13.88;10.02;;;;;;;10.81;70.85;99365.31;6069264;23;20026;-83
2021/11/13 10:11:03;;;;;;;13.40;10.85;;;;;;;10.86;71.17;99362.41;6068802;23;20035;-82
2021/11/13 10:13:33;;;;;;;15.93;11.32;;;;;;;10.91;71.12;99364.72;6069134;23;20034;-81
2021/11/13 10:16:05;;;;;;;14.52;11.15;;;;;;;10.97;70.76;99376.66;6069386;23;20034;-83
2021/11/13 10:18:35;;;;;;;12.90;9.68;;;;;;;11.02;70.99;99382.47;6068864;23;20384;-83
2021/11/13 10:21:14;;;;;;;13.35;10.60;;;;;;;11.05;71.27;99384.91;6068744;23;20071;-82
2021/11/13 10:23:49;;;;;;;14.38;10.20;;;;;;;11.11;70.98;99392.44;6042692;23;20026;-82
2021/11/13 10:26:25;;;;;;;11.20;8.90;;;;;;;11.15;70.79;99393.91;6069223;23;20027;-82
2021/11/13 10:28:56;;;;;;;13.95;10.43;;;;;;;11.20;70.45;99391.81;6069986;23;20026;-82
2021/11/13 10:31:32;;;;;;;12.27;10.18;;;;;;;11.23;70.67;99401.31;6070344;23;20482;-82
2021/11/13 10:34:23;;;;;;;11.27;9.52;;;;;;;11.27;70.42;99397.53;6069541;23;20061;-82
2021/11/13 10:36:57;;;;;;;12.85;10.35;;;;;;;11.33;70.11;99399.75;6070743;23;20078;-83
2021/11/13 10:39:44;;;;;;;15.02;10.88;;;;;;;11.32;70.60;99400.69;6071212;23;20329;-83
2021/11/13 10:42:18;;;;;;;13.02;10.25;;;;;;;11.37;70.07;99400.41;6044849;23;20042;-82
2021/11/13 10:44:48;;;;;;;13.75;10.50;;;;;;;11.40;69.84;99402.81;6069903;23;20023;-82
2021/11/13 10:47:15;;;;;;;12.88;10.18;;;;;;;11.43;69.53;99405.25;6067686;23;20045;-82
2021/11/13 10:49:42;;;;;;;13.57;10.82;;;;;;;11.43;69.75;99410.53;6069482;23;20125;-82
2021/11/13 10:52:10;;;;;;;17.48;11.60;;;;;;;11.44;69.64;99409.56;6069184;23;20466;-82
2021/11/13 10:54:40;;;;;;;15.23;11.43;;;;;;;11.44;69.71;99414.84;6069050;23;20034;-82
2021/11/13 10:57:09;;;;;;;15.50;11.27;;;;;;;11.46;69.80;99412.13;6069200;23;20097;-82
2021/11/13 10:59:39;;;;;;;15.68;11.00;;;;;;;11.45;69.76;99408.63;6069029;23;20455;-82
2021/11/13 11:02:09;;;;;;;14.52;10.98;;;;;;;11.47;69.88;99409.38;6069671;23;20396;-83
2021/11/13 11:04:39;;;;;;;15.50;11.13;;;;;;;11.49;69.85;99413.69;6045156;23;20102;-83
2021/11/13 11:07:14;;;;;;;14.32;10.90;;;;;;;11.51;70.11;99417.09;6071561;23;20034;-81
2021/11/13 11:10:04;;;;;;;16.25;11.77;;;;;;;11.52;69.92;99417.00;6070654;23;20534;-84
2021/11/13 11:12:33;;;;;;;16.50;11.55;;;;;;;11.54;69.63;99409.81;6070338;23;20033;-84
2021/11/13 11:15:00;;;;;;;17.52;11.48;;;;;;;11.55;69.69;99402.75;6070870;23;20026;-83
2021/11/13 11:17:30;;;;;;;18.95;12.05;;;;;;;11.55;69.58;99406.22;6071174;23;20388;-83
2021/11/13 11:20:13;;;;;;;16.02;11.70;;;;;;;11.53;70.40;99409.91;6070387;23;20455;-83
2021/11/13 11:22:41;;;;;;;17.40;12.32;;;;;;;11.57;69.83;99408.75;6044399;23;20485;-83
2021/11/13 11:25:12;;;;;;;18.60;12.68;;;;;;;11.57;69.79;99408.75;6069992;23;20034;-82
2021/11/13 11:27:49;;;;;;;16.95;12.07;;;;;;;11.56;70.22;99418.44;6044457;23;20023;-85
2021/11/13 11:30:19;;;;;;;20.20;12.23;;;;;;;11.58;69.87;99416.56;6045496;23;20089;-84
2021/11/13 11:32:56;;;;;;;19.02;12.13;;;;;;;11.58;69.74;99421.00;6044329;23;20110;-84
2021/11/13 11:35:29;;;;;;;21.30;12.77;;;;;;;11.57;70.07;99416.66;6070470;23;20034;-83
2021/11/13 11:37:59;;;;;;;18.88;12.88;;;;;;;11.59;69.92;99418.25;6070045;23;20023;-84